MET: Información y Pronóstico Aeronáutico

///////////////////////////////////////////////////////////////////////////////////////////////////////////////////////////////////////////////////////////////////////////////////////////////////////////////////////////////////////////////

Member for

3 años 2 meses
Enviado por meteorologia el Jue, 10/06/2021 - 09:33
22/9

22 DE SETIEMBRE 2021

INFORMACION METEOROLOGICA AERONAUTICA (METAR) 18:00 UTC

Aeropuerto AEROPARQUE J. NEWBERY

22 - 18:00  METAR SABE 221800Z 09006KT 050V130 9999 BKN040 SCT100 14/10 Q1024 TEMPO 7000 SHRA BKN020 BKN060 FEW045CB =

Aeropuerto BAHIA BLANCA

22 - 18:00  METAR SAZB 221800Z 34011KT CAVOK 14/03 Q1022 =

Aeropuerto BARILOCHE

22 - 17:00  METAR SAZS 221700Z 32030KT 9999 FEW045 SCT100 11/00 Q1020 =

Aeropuerto CATAMARCA

22 - 18:00  METAR SANC 221800Z 36013KT 9999 BKN050 24/08 Q1013 =

Aeropuerto CHAPELCO

22 - 18:00  METAR SAZY 221800Z 27018G32KT 9999 BKN045 12/M01 Q1020 =

Aeropuerto COMODORO RIVADAVIA

22 - 18:00  METAR SAVC 221800Z 28032G48KT CAVOK 22/M01 Q1007 =

Aeropuerto CORDOBA

22 - 18:00  METAR SACO 221800Z 08009KT 050V140 CAVOK 19/03 Q1017 NOSIG =

Aeropuerto CORRIENTES

22 - 18:00  METAR SARC 221800Z 16012KT CAVOK 21/10 Q1014 =

Aeropuerto EL CALAFATE

22 - 18:00  METAR SAWC 221800Z 25020KT 9999 FEW035 SCT200 16/00 Q0999 =

Aeropuerto EL PALOMAR

22 - 18:00  METAR SADP 221800Z 05004KT 9999 FEW035 OVC200 14/10 Q1023 =

Aeropuerto ESQUEL

22 - 18:00  METAR SAVE 221800Z 28020G32KT 220V330 9999 FEW040 SCT200 13/M02 Q1017 =

Aeropuerto EZEIZA

22 - 18:00  METAR SAEZ 221800Z 07006KT 9999 FEW024 BKN033 OVC200 15/10 Q1024 TEMPO 8000 -SHRA =

Aeropuerto FORMOSA

22 - 18:00  METAR SARF 221800Z 18007KT CAVOK 24/13 Q1013 =

Aeropuerto IGUAZU/CATARATAS

22 - 18:00  METAR SARI 221800Z VRB05KT CAVOK 29/18 Q1013 =

Aeropuerto JUJUY

22 - 18:00  METAR SASJ 221800Z VRB04KT 9999 FEW045 BKN150 20/18 Q1015 =

Aeropuerto LA RIOJA

22 - 18:00  METAR SANL 221800Z 32003KT CAVOK 23/10 Q1014 =

Aeropuerto MALARGUE

22 - 18:00  METAR SAMM 221800Z 27006KT 9999 FEW035 20/M08 Q1019 =

Aeropuerto MAR DEL PLATA

22 - 18:00  METAR SAZM 221800Z 33007KT 9999 BKN043 OVC100 14/08 Q1025 =

Aeropuerto MENDOZA

22 - 18:00  METAR SAME 221800Z 09010KT 9999 FEW040 22/07 Q1016 =

Aeropuerto MORON

22 - 18:00  METAR SADM 221800Z 05003KT 9999 FEW035 BKN100 OVC200 15/11 Q1023 =

Aeropuerto NEUQUEN

22 - 18:00  METAR SAZN 221800Z 23008G18KT CAVOK 22/04 Q1016 =

Aeropuerto PARANA

22 - 18:00  METAR SAAP 221800Z 09009KT 9999 SCT025 BKN100 17/08 Q1020 =

Aeropuerto POSADAS

22 - 18:00  METAR SARP 221800Z 14004KT CAVOK 24/14 Q1015 =

Aeropuerto PUERTO MADRYN

22 - 18:00  METAR SAVY 221800Z 34012KT 9999 FEW035 22/04 Q1012 =

Aeropuerto RECONQUISTA

22 - 18:00  METAR SATR 221800Z 11006KT CAVOK 22/09 Q1016 =

Aeropuerto RESISTENCIA

22 - 18:00  METAR SARE 221800Z 13007KT 100V160 CAVOK 21/09 Q1014 =

Aeropuerto RIO CUARTO

22 - 18:00  METAR SAOC 221800Z 02016G26KT CAVOK 18/03 Q1018 =

Aeropuerto RIO GALLEGOS

22 - 17:00  METAR SAWG 221700Z 27014KT 9999 FEW030 SCT090 BKN200 16/03 Q0996 =

Aeropuerto RIO GRANDE

22 - 18:00  METAR SAWE 221800Z 27029G39KT 9999 SCT025 BKN100 15/05 Q0993 =

Aeropuerto ROSARIO

22 - 18:00  METAR SAAR 221800Z 10013KT 9999 TS FEW025 FEW045CB OVC100 13/08 Q1021 =

Aeropuerto SALTA

22 - 18:00  METAR SASA 221800Z 02007KT 9999 OVC030 18/09 Q1016 =

Aeropuerto SAN FERNANDO

22 - 18:00  METAR SADF 221800Z 07006KT CAVOK 14/10 Q1023 =

Aeropuerto SAN JUAN

22 - 18:00  METAR SANU 221800Z 14012KT CAVOK 25/07 Q1014 =

Aeropuerto SAN LUIS

22 - 18:00  METAR SAOU 221800Z 02005KT 9999 BKN040 20/03 Q1017 RMK ESTIMATED WIND =

Aeropuerto SAN RAFAEL

22 - 18:00  METAR SAMR 221800Z 05005KT 9999 SCT045 22/06 Q1016 =

Aeropuerto SANTA ROSA

22 - 18:00  METAR SAZR 221800Z 02015KT CAVOK 14/07 Q1021 =

Aeropuerto SANTIAGO DEL ESTERO

22 - 18:00  METAR SANE 221800Z 07007KT 9999 FEW045 BKN150 24/09 Q1014 =

Aeropuerto SAUCE VIEJO

22 - 18:00  METAR SAAV 221800Z 14007KT CAVOK 18/09 Q1019 =

Aeropuerto TANDIL

22 - 18:00  METAR SAZT 221800Z 36010KT 9999 SCT025 OVC100 13/07 Q1025 =

Aeropuerto TERMAS DE RIO HONDO

22 - 18:00  METAR SANR 221800Z 23009KT 9999 SCT035 BKN100 23/06 Q1014 =

Aeropuerto TRELEW

22 - 18:00  METAR SAVT 221800Z 25010KT 9999 FEW045 23/05 Q1012 =

Aeropuerto TUCUMAN

22 - 18:00  METAR SANT 221800Z 27012KT 7000 SCT040 BKN056 BKN070 19/12 Q1015 =

Aeropuerto USHUAIA

22 - 18:00  METAR SAWH 221800Z 23010KT 9999 SCT040 BKN080 13/04 Q0990 =

Aeropuerto VIEDMA

22 - 18:00  METAR SAVV 221800Z 34013KT 300V030 CAVOK 17/07 Q1018 =

Aeropuerto VILLA REYNOLDS

22 - 18:00  METAR SAOR 221800Z 090/10KT 9999 FEW020 BKN100 17/05 Q1018 =

 PRONOSTICO DE AERODROMO (TAF) 17:00 UTC

Estación AEROPARQUE J. NEWBERY

22 - 17:00  TAF SABE 221700Z 2218/2318 05010KT 9999 BKN030 BKN100 TX18/2318Z TN13/2311Z TEMPO 2219/2222 07015KT 9000 -SHRA BKN020 BKN060 FEW045CB BECMG 2222/2224 09015G25KT BKN020 BKN090 BECMG 2304/2306 09010KT BKN018 BKN090 PROB30 TEMPO 2306/2310 7000 -DZ BKN012 BKN050 BECMG 2316/2318 05010KT 9999 SCT020 SCT030 =

Estación BAHIA BLANCA

22 - 17:00  TAF SAZB 221700Z 2218/2318 34015KT 9999 SCT030 BKN070 TX21/2318Z TN06/2309Z PROB30 TEMPO 2300/2304 8000 -RA BKN020 BKN070 BECMG 2312/2315 34008KT CAVOK =

Estación BARILOCHE

22 - 17:00  SAZS 221725Z 2218/2318 29025G35KT 9999 SCT040 SCT100 TX16/2318Z TN02/2311Z BECMG 2223/2301 29015KT SCT040 BKN090 BECMG 2306/2307 29005KT 9999 SCT018 BKN090 PROB40 TEMPO 2308/2311 VRB03KT 0800 FG SCT018 BECMG 2314/2316 29010KT 9999 SCT020 BKN080 =

Estación CATAMARCA

22 - 17:00  TAF SANC 221700Z 2218/2318 36015KT CAVOK TX28/2319Z TN10/2310Z BECMG 2220/2222 05010KT BECMG 2306/2308 20005KT BECMG 2316/2318 05015KT =

Estación CHAPELCO

22 - 17:00  TAF SAZY 221700Z 2218/2318 29020G30KT 9999 BKN045 TX17/231Z TN01/2311Z BECMG 2223/2302 29010KT BECMG 2306/2308 VRB03KT 5000 BR BKN010 TEMPO 2309/2312 3000 BR BECMG 2313/2315 9999 NSW SCT010 =

Estación COMODORO RIVADAVIA

22 - 17:00  TAF SAVC 221100Z 2212/2312 29025G40KT CAVOK TX23/2219Z TN11/2310Z PROB30 TEMPO 2218/2222 29030G45KT 5000 BLDU BECMG 2300/2302 27015KT FEW025 SCT100 =

Estación CORDOBA

22 - 17:00  TAF SACO 221700Z 2218/2318 05010KT CAVOK TX26/2319Z TN08/2310Z BECMG 2223/2301 32005KT BECMG 2312/2314 18010KT CAVOK =

Estación CORRIENTES

22 - 17:00  TAF SARC 221700Z 2218/2318 12010KT CAVOK TX24/2319Z TN14/2310Z =

Estación EL CALAFATE

22 - 11:00  TAF SAWC 221100Z 2212/2312 27020KT 9999 SCT030 BKN080 TX18/2219Z TN02/2309Z TEMPO 2218/2223 26025G35KT BECMG 2301/2303 18012KT BKN020 BECMG 2306/2308 VRB05KT FEW030 =

Estación EL PALOMAR

22 - 17:00  TAF SADP 221700Z 2218/2318 09010KT 9999 SCT030 BKN045 TX18/2318Z TN11/2312Z TEMPO 2218/2222 8000 SHRA BKN020 FEW040TCU BKN045 BECMG 2304/2306 VRB03KT 5000 DZBR OVC010 TEMPO 2308/2311 3000 DZBR OVC008 BECMG 2311/2314 8000 NSW BKN015 PROB30 TEMPO 2315/2318 7000 -SHRA BKN015 FEW030TCU =

Estación ESQUEL

22 - 11:00  TAF SAVE 221100Z 2212/2312 29020G35KT SCT030 BKN090 TX14/2219Z TN03/2310Z BECMG 2300/2302 28015KT FEW020 BKN030 =

Estación EZEIZA

22 - 17:00  TAF SAEZ 221700Z 2218/2318 09010KT 9999 SCT030 BKN045 TX18/2318Z TN11/2312Z TEMPO 2218/2222 8000 SHRA BKN020 FEW040TCU BKN045 BECMG 2304/2306 VRB03KT 5000 DZBR OVC010 TEMPO 2308/2311 3000 DZBR OVC008 BECMG 2311/2314 8000 NSW BKN015 PROB30 TEMPO 2315/2318 7000 -SHRA BKN015 FEW030TCU =

Estación FORMOSA

22 - 17:00  TAF SARF 221700Z 2218/2318 14005KT CAVOK TX27/2319Z TN14/2310Z =

Estación IGUAZU/CATARATAS

22 - 17:00  TAF SARI 221700Z 2218/2318 VRB03KT CAVOK TX30/2319Z TN14/2310Z =

Estación JUJUY

22 - 17:00  TAF SASJ 221700Z 2218/2318 05005KT 9999 SCT040 TX26/2319Z TN12/2310Z BECMG 2223/2301 27005KT 9999 BKN020 BECMG 2307/2309 CAVOK PROB40 TEMPO 2309/2312 VRB02KT 2000 BR NSC BECMG 2314/2316 18010KT CAVOK =

Estación LA RIOJA

22 - 17:00  TAF SANL 221700Z 2218/2318 14005KT CAVOK TX28/2319Z TN12/2310Z BECMG 2300/2302 23010KT BECMG 2316/2318 07010KT =

Estación MAR DEL PLATA

22 - 17:00  TAF SAZM 221700Z 2218/2318 34010KT 9999 BKN040 OVC080 TX14/2218Z TN05/2310Z BECMG 2222/2223 02010KT 6000 BKN030 OVC080 BECMG 2303/2304 VRB03KT 2000 DZ BR BKN010 OVC040 BECMG 2313/2314 07010KT 5000 BKN020 BKN050 =

Estación MENDOZA

22 - 17:00  TAF SAME 221700Z 2218/2318 05005KT CAVOK TX24/2220Z TN10/2311Z =

Estación NEUQUEN

22 - 17:00  TAF SAZN 221700Z 2218/2318 25015G25KT CAVOK TX23/2318Z TN08/2311Z TEMPO 2218/2320 25020G30KT BECMG 2305/2307 27015KT BECMG 2307/2309 27010KT BECMG 2314/2316 02005KT =

Estación PARANA

22 - 17:00  TAF SAAP 221700Z 2218/2318 15012KT 9999 SCT030 BKN0100 TX22/2318Z TN09/2311Z TEMPO 2218/2221 8000 SHRA SCT030 FEW040TCU BKN100 BECMG 2303/2305 VRB03KT PROB30 TEMPO 2308/2311 4000 BR SCT010 BECMG 2312/2315 15008KT SCT020 =

Estación POSADAS

22 - 17:00  TAF SARP 221700Z 2218/2318 09010KT CAVOK TX27/2319Z TN14/2310Z =

Estación RESISTENCIA

22 - 17:00  TAF SARE 221700Z 2218/2318 12010KT CAVOK TX24/2319Z TN14/2310Z =

Estación RIO CUARTO

22 - 17:00  TAF SAOC 221700Z 2218/2318 02020KT CAVOK TX24/2319Z TN09/2310Z BECMG 2300/2302 36005KT PROB40 TEMPO 2309/2312 18005KT 5000 BR NSC BECMG 2314/2316 11010KT CAVOK =

Estación RIO GALLEGOS

22 - 17:00  TAF SAWG 221100Z 2212/2312 25025KT 9999 SCT030 BKN080 TX18/2219Z TN04/2310Z BECMG 2301/2303 29012KT =

Estación RIO GRANDE

22 - 17:00  TAF SAWE 221100Z 2212/2312 29010KT 9999 SCT008 BKN015 TX14/2219Z TN02/2310Z BECMG 2219/2221 29025KT BKN020 TEMPO 2220/2224 27025G35KT =

Estación ROSARIO

22 - 17:00  SAAR 221725Z 2218/2318 08010KT 9000 -TSRA SCT030 FEW040CB BKN040 TX23/2318Z TN08/2311Z BECMG 2219/2222 12010KT 9999 SCT025 BKN100 BECMG 2306/2308 16005KT 7000 BKN018 BECMG 2308/2310 3000 BR BKN015 PROB30 TEMPO 2309/2311 0800 FG BKN008 BECMG 2312/2314 9999 BKN020 =

Estación SALTA

22 - 17:00  TAF SASA 221700Z 2218/2318 36005KT 9999 SCT025 BKN040 TX25/2319Z TN10/2310Z BECMG 2223/2302 32005KT 9999 BKN020 BECMG 2305/2307 CAVOK PROB40 TEMPO 2309/2312 VRB02KT 2000 BR BKN010 BECMG 2314/2316 05010KT CAVOK =

Estación SAN FERNANDO

22 - 17:00  TAF SADF 221700Z 2218/2318 07010KT 9999 SCT030 BKN040 TX17/2318Z TN13/2310Z TEMPO 2219/2223 8000 SHRA FEW030CB BKN035 BECMG 2306/2308 09005KT 5000 RA BR BKN010 BECMG 2313/2315 8000 BKN020 PROB30 TEMPO 2317/2318 -SHRA BKN030 =

Estación SAN JUAN

22 - 17:00  TAF SANU 221700Z 2218/2318 05010KT 9999 FEW040 TX26/2220Z TN12/2311Z =

Estación SAN LUIS

22 - 17:00  TAF SAOU 221700Z 2218/2318 36010KT 9999 FEW030 TX23/2218Z TN11/2309Z =

Estación SAN RAFAEL

22 - 17:00  TAF SAMR 221700Z 2218/2318 05005KT 9999 FEW040 TX24/2220Z TN08/2311Z =

Estación SANTA ROSA

22 - 17:00  TAF SAZR 221700Z 2218/2318 02015G25KT 9999 SCT040 BKN100 TX22/2318Z TN04/2311Z BECMG 2222/2300 04010KT BECMG 2306/2309 VRB03KT 5000 BR BECMG 2312/2314 34005KT CAVOK =

Estación SANTIAGO DEL ESTERO

22 - 17:00  TAF SANE 221700Z 2218/2318 05010KT CAVOK TX28/2319Z TN14/2310Z BECMG 2301/2304 09010KT BECMG 2306/2308 18005KT =

Estación SAUCE VIEJO

22 - 17:00  TAF SAAV 221700Z 2218/2318 15012KT 9999 SCT030 BKN0100 TX23/2318Z TN09/2311Z TEMPO 2218/2221 8000 SHRA SCT030 FEW040TCU BKN100 BECMG 2303/2305 VRB03KT PROB30 TEMPO 2308/2311 4000 BR SCT010 BECMG 2312/2315 15008KT SCT020 =

Estación TERMAS DE RIO HONDO

22 - 17:00  TAF SANR 221700Z 2218/2318 23010KT CAVOK TX26/2319Z TN12/2310Z BECMG 2300/2302 18005KT =

Estación TRELEW

22 - 11:00  TAF SAVT 221100Z 2212/2312 32012KT 9999 FEW030 TX25/2219Z TN08/2310Z BECMG 2300/2302 25010KT =

Estación TUCUMAN

22 - 17:00  TAF SANT 221700Z 2218/2318 27010KT 7000 FU BKN040 TX28/2319Z TN12/2310Z BECMG 2301/2303 36005KT CAVOK PROB40 TEMPO 2309/2312 5000 BR BKN010 BECMG 2314/2316 25005KT CAVOK =

Estación USHUAIA

22 - 17:00  TAF SAWH 221100Z 2212/2312 VRB05KT 9999 SCT030 BKN070 TX14/2219Z TN02/2306Z BECMG 2219/2221 26015G25KT BECMG 2300/2302 -SHRA SCT020 BKN030 BECMG 2303/2305 29015G25KT =

Estación VIEDMA

22 - 11:00  TAF SAVV 221100Z 2212/2312 34018KT CAVOK TX18/2220Z TN06/2310Z BECMG 2300/2302 36012KT =